KFPR/FPR METAR and TAF weather

Enter ICAO airport designator
Station Type Date Time Source
KFPR METAR 2019/12/13 16:53 UTC NOAA

KFPR 131653Z 15008KT 10SM FEW032 SCT080 BKN090 26/21 A2997 RMK AO2 SLP148 T02560206


Station Type Date Time Source
KFPR Decoded METAR 2019/12/13 16:53 UTC NOAA

FORT PIERCE ST LUCIE, FL, United States (KFPR) 27-30N 080-23W 13M
Dec 13, 2019 - 11:53 AM EST / 2019.12.13 1653 UTC
Wind: from the SSE (150 degrees) at 9 MPH (8 KT):0
Visibility: 10 mile(s):0
Sky conditions: mostly cloudy
Temperature: 78.1 F (25.6 C)
Dew Point: 69.1 F (20.6 C)
Relative Humidity: 73%
Pressure (altimeter): 29.97 in. Hg (1014 hPa)
ob: KFPR 131653Z 15008KT 10SM FEW032 SCT080 BKN090 26/21 A2997 RMK AO2 SLP148 T02560206
cycle: 17

Station Type Date Time Source
KFPR TAF 2019/12/13 17:10 UTC NOAA

TAF
AMD KFPR 131708Z 1317/1412 14010KT P6SM VCSH SCT020 SCT080 BKN120
FM132200 20009KT P6SM SCT025 BKN060
FM140000 23005KT P6SM SCT030 BKN250

Example: see airport list